Latest Weather Observations for Fort Denison

IDN60801

Issued at 2:02 pm EDT Tuesday 28 February 2017 (issued every 30 minutes, with the page automatically refreshed every 10 minutes)

About weather observations | Map of weather stations | Latest weather observations for NSW | Other Formats
Station Details ID: 066022 Name: FORT DENISON Lat: -33.86 Lon: 151.23 Height: 5.0 m
Data from the previous 72 hours. | See also: Recent months for locations in New South Wales
Date/Time
EDT
Temp
°C
App
Temp
°C
Dew
Point
°C
Rel
Hum
%
Delta-T
°C
Wind Press
QNH
hPa
Press
MSL
hPa
Rain since
9am
mm
Dir  Spd
km/h
Gust
km/h
Spd
kts
Gust
kts
28/02:00pm - - - - - E 19 22 10 12 - - -
28/01:30pm - - - - - E 22 30 12 16 - - -
28/01:00pm - - - - - E 24 32 13 17 - - -
28/12:30pm - - - - - E 24 32 13 17 - - -
28/12:00pm - - - - - E 24 32 13 17 - - -
28/11:30am - - - - - E 26 39 14 21 - - -
28/11:00am - - - - - E 30 44 16 24 - - -
28/10:30am - - - - - ESE 20 32 11 17 - - -
28/10:00am - - - - - E 20 26 11 14 - - -
28/09:30am - - - - - ESE 20 26 11 14 - - -
28/09:00am - - - - - ESE 19 24 10 13 - - -
28/08:30am - - - - - ESE 19 24 10 13 - - -
28/08:00am - - - - - ESE 19 24 10 13 - - -
28/07:30am - - - - - E 15 19 8 10 - - -
28/07:00am - - - - - E 15 19 8 10 - - -
28/06:30am - - - - - E 20 30 11 16 - - -
28/06:00am - - - - - ESE 20 24 11 13 - - -
28/05:30am - - - - - ESE 17 19 9 10 - - -
28/05:00am - - - - - ESE 20 24 11 13 - - -
28/04:30am - - - - - ESE 22 28 12 15 - - -
28/04:00am - - - - - ESE 17 22 9 12 - - -
28/03:30am - - - - - SE 9 11 5 6 - - -
28/03:00am - - - - - ESE 13 19 7 10 - - -
28/02:30am - - - - - SE 13 20 7 11 - - -
28/02:00am - - - - - SSE 9 13 5 7 - - -
28/01:30am - - - - - S 11 15 6 8 - - -
28/01:00am - - - - - SE 9 19 5 10 - - -
28/12:30am - - - - - SE 11 20 6 11 - - -
28/12:00am - - - - - SSE 6 13 3 7 - - -
 
Date/Time
EDT
Temp
°C
App
Temp
°C
Dew
Point
°C
Rel
Hum
%
Delta-T
°C
Wind Press
QNH
hPa
Press
MSL
hPa
Rain since
9am
mm
Dir  Spd
km/h
Gust
km/h
Spd
kts
Gust
kts
27/11:30pm - - - - - ESE 2 6 1 3 - - -
27/11:00pm - - - - - S 4 7 2 4 - - -
27/10:30pm - - - - - SSW 9 13 5 7 - - -
27/10:00pm - - - - - SSW 13 20 7 11 - - -
27/09:30pm - - - - - S 13 19 7 10 - - -
27/09:00pm - - - - - SSW 13 20 7 11 - - -
27/08:30pm - - - - - S 15 24 8 13 - - -
27/08:00pm - - - - - S 15 24 8 13 - - -
27/07:30pm - - - - - S 17 24 9 13 - - -
27/07:00pm - - - - - S 20 32 11 17 - - -
27/06:30pm - - - - - SSE 22 32 12 17 - - -
27/06:00pm - - - - - SSE 28 39 15 21 - - -
27/05:30pm - - - - - SSE 24 37 13 20 - - -
27/05:00pm - - - - - SSE 24 30 13 16 - - -
27/04:30pm - - - - - SSE 20 30 11 16 - - -
27/04:00pm - - - - - SE 24 44 13 24 - - -
27/03:30pm - - - - - SE 28 37 15 20 - - -
27/03:00pm - - - - - SE 24 33 13 18 - - -
27/02:30pm - - - - - SE 24 39 13 21 - - -
27/02:00pm - - - - - SE 22 35 12 19 - - -
27/01:30pm - - - - - SE 24 35 13 19 - - -
27/01:00pm - - - - - SE 20 33 11 18 - - -
27/12:30pm - - - - - SE 22 32 12 17 - - -
27/12:00pm - - - - - ESE 24 32 13 17 - - -
27/11:30am - - - - - SE 24 35 13 19 - - -
27/11:00am - - - - - SE 19 26 10 14 - - -
27/10:30am - - - - - SE 20 32 11 17 - - -
27/10:00am - - - - - SE 17 30 9 16 - - -
27/09:30am - - - - - SE 20 30 11 16 - - -
27/09:00am - - - - - SE 19 26 10 14 - - -
27/08:30am - - - - - ESE 19 24 10 13 - - -
27/08:00am - - - - - SE 17 26 9 14 - - -
27/07:30am - - - - - ESE 19 26 10 14 - - -
27/07:00am - - - - - SE 19 28 10 15 - - -
27/06:30am - - - - - ESE 19 28 10 15 - - -
27/06:00am - - - - - ESE 20 26 11 14 - - -
27/05:30am - - - - - ESE 22 28 12 15 - - -
27/05:00am - - - - - ESE 24 32 13 17 - - -
27/04:30am - - - - - ESE 28 35 15 19 - - -
27/04:00am - - - - - ESE 24 33 13 18 - - -
27/03:30am - - - - - ESE 20 30 11 16 - - -
27/03:00am - - - - - ESE 20 35 11 19 - - -
27/02:30am - - - - - W 15 20 8 11 - - -
27/02:00am - - - - - NW 15 26 8 14 - - -
27/01:30am - - - - - SW 7 17 4 9 - - -
27/01:00am - - - - - SSW 19 26 10 14 - - -
27/12:30am - - - - - SSW 19 26 10 14 - - -
27/12:00am - - - - - SSW 13 19 7 10 - - -
 
Date/Time
EDT
Temp
°C
App
Temp
°C
Dew
Point
°C
Rel
Hum
%
Delta-T
°C
Wind Press
QNH
hPa
Press
MSL
hPa
Rain since
9am
mm
Dir  Spd
km/h
Gust
km/h
Spd
kts
Gust
kts
26/11:30pm - - - - - SSW 15 22 8 12 - - -
26/11:00pm - - - - - SSW 19 28 10 15 - - -
26/10:30pm - - - - - SSW 20 30 11 16 - - -
26/10:00pm - - - - - S 19 28 10 15 - - -
26/09:30pm - - - - - S 17 32 9 17 - - -
26/09:00pm - - - - - SSE 26 43 14 23 - - -
26/08:30pm - - - - - SSE 22 39 12 21 - - -
26/08:00pm - - - - - S 20 32 11 17 - - -
26/07:30pm - - - - - S 20 32 11 17 - - -
26/07:00pm - - - - - SSE 20 32 11 17 - - -
26/06:30pm - - - - - S 22 33 12 18 - - -
26/06:00pm - - - - - S 24 39 13 21 - - -
26/05:30pm - - - - - SSE 28 44 15 24 - - -
26/05:01pm - - - - - SSE 28 46 15 25 - - -
26/05:00pm - - - - - SSE 30 46 16 25 - - -
26/04:49pm - - - - - SSE 30 48 16 26 - - -
26/04:30pm - - - - - SSE 33 46 18 25 - - -
26/04:00pm - - - - - SSE 28 41 15 22 - - -
26/03:30pm - - - - - S 22 37 12 20 - - -
26/03:00pm - - - - - SSW 24 33 13 18 - - -
26/02:30pm - - - - - S 22 37 12 20 - - -
26/02:00pm - - - - - S 24 37 13 20 - - -
26/01:30pm - - - - - SE 22 32 12 17 - - -
26/01:00pm - - - - - SSE 24 39 13 21 - - -
26/12:30pm - - - - - SSE 24 35 13 19 - - -
26/12:00pm - - - - - SSE 24 39 13 21 - - -
26/11:30am - - - - - SSE 26 37 14 20 - - -
26/11:00am - - - - - S 19 26 10 14 - - -
26/10:30am - - - - - SSE 20 33 11 18 - - -
26/10:00am - - - - - SSE 19 32 10 17 - - -
26/09:30am - - - - - SSE 20 33 11 18 - - -
26/09:00am - - - - - SSE 15 20 8 11 - - -
26/08:30am - - - - - SSE 15 22 8 12 - - -
26/08:00am - - - - - SSE 13 20 7 11 - - -
26/07:30am - - - - - SSE 19 28 10 15 - - -
26/07:00am - - - - - SSE 13 17 7 9 - - -
26/06:30am - - - - - S 7 15 4 8 - - -
26/06:00am - - - - - SW 4 7 2 4 - - -
26/05:30am - - - - - SE 15 22 8 12 - - -
26/05:00am - - - - - SE 17 24 9 13 - - -
26/04:30am - - - - - SE 19 30 10 16 - - -
26/04:00am - - - - - SE 20 28 11 15 - - -
26/03:30am - - - - - SE 19 30 10 16 - - -
26/03:00am - - - - - SE 20 32 11 17 - - -
26/02:30am - - - - - ESE 30 33 16 18 - - -
26/02:00am - - - - - ESE 24 33 13 18 - - -
26/01:30am - - - - - ESE 26 35 14 19 - - -
26/01:00am - - - - - WNW 13 20 7 11 - - -
26/12:30am - - - - - W 13 19 7 10 - - -
26/12:00am - - - - - W 13 15 7 8 - - -
 
Date/Time
EDT
Temp
°C
App
Temp
°C
Dew
Point
°C
Rel
Hum
%
Delta-T
°C
Wind Press
QNH
hPa
Press
MSL
hPa
Rain since
9am
mm
Dir  Spd
km/h
Gust
km/h
Spd
kts
Gust
kts
25/11:30pm - - - - - WNW 11 15 6 8 - - -
25/11:00pm - - - - - WNW 9 13 5 7 - - -
25/10:30pm - - - - - SSW 13 24 7 13 - - -
25/10:00pm - - - - - SW 11 17 6 9 - - -
25/09:30pm - - - - - SW 6 11 3 6 - - -
25/09:00pm - - - - - WSW 7 13 4 7 - - -
25/08:30pm - - - - - SW 11 17 6 9 - - -
25/08:00pm - - - - - SSW 17 22 9 12 - - -
25/07:30pm - - - - - SSW 15 19 8 10 - - -
25/07:00pm - - - - - SSW 20 28 11 15 - - -
25/06:30pm - - - - - SSW 20 30 11 16 - - -
25/06:00pm - - - - - SSW 17 30 9 16 - - -
25/05:30pm - - - - - SSW 20 32 11 17 - - -
25/05:00pm - - - - - SSW 22 37 12 20 - - -
25/04:30pm - - - - - SSW 20 35 11 19 - - -
25/04:00pm - - - - - S 15 26 8 14 - - -
25/03:30pm - - - - - SSW 24 37 13 20 - - -
25/03:00pm - - - - - SSW 19 30 10 16 - - -
25/02:30pm - - - - - SSW 20 32 11 17 - - -

Other Formats:

Comma delimited format used in spreadsheet applications
http://www.bom.gov.au/fwo/IDN60801/IDN60801.94769.axf

JavaScript Object Notation format (JSON) in row-major order
http://www.bom.gov.au/fwo/IDN60801/IDN60801.94769.json